Time;durP1;ratioP1;P1;durP2;ratioP2;P2;SDS_P1;SDS_P2;PMS_P1;PMS_P2;Temp;Humidity;BMP_temperature;BMP_pressure;BME280_temperature;BME280_humidity;BME280_pressure;Samples;Min_cycle;Max_cycle;Signal;HPM_P1;HPM_P2
2022/06/28 00:00:28;;;;;;;16.77;13.57;;;14.40;99.90;;;;;;5063624;28;20094;-62
2022/06/28 00:02:53;;;;;;;12.68;10.80;;;14.30;99.90;;;;;;5056818;28;20064;-62
2022/06/28 00:05:20;;;;;;;14.23;12.05;;;14.40;99.90;;;;;;5057872;28;20041;-62
2022/06/28 00:07:46;;;;;;;13.77;12.38;;;14.30;99.90;;;;;;5074940;28;20049;-62
2022/06/28 00:10:13;;;;;;;12.57;11.27;;;14.30;99.90;;;;;;5058950;28;20079;-62
2022/06/28 00:12:39;;;;;;;13.05;11.75;;;14.20;99.90;;;;;;5055944;28;20405;-62
2022/06/28 00:17:52;;;;;;;14.20;12.70;;;14.10;99.90;;;;;;5030877;28;20057;-62
2022/06/28 00:20:18;;;;;;;14.00;12.50;;;14.20;99.90;;;;;;5026372;28;20076;-62
2022/06/28 00:22:44;;;;;;;13.88;11.65;;;14.20;99.90;;;;;;5012701;28;20045;-62
2022/06/28 00:25:09;;;;;;;13.98;12.23;;;14.00;99.90;;;;;;5046052;28;20033;-62
2022/06/28 00:27:35;;;;;;;13.73;12.23;;;14.10;99.90;;;;;;5013591;28;20064;-62
2022/06/28 00:30:02;;;;;;;14.23;12.18;;;14.10;99.90;;;;;;5028257;28;20049;-62
2022/06/28 00:32:28;;;;;;;14.00;11.90;;;14.10;99.90;;;;;;5030877;28;20083;-62
2022/06/28 00:34:54;;;;;;;19.00;12.70;;;14.00;99.90;;;;;;5030142;28;20069;-62
2022/06/28 00:37:20;;;;;;;13.90;12.02;;;14.00;99.90;;;;;;5018652;28;20564;-62
2022/06/28 00:39:45;;;;;;;12.40;11.05;;;14.00;99.90;;;;;;5027615;28;20092;-62
2022/06/28 00:42:11;;;;;;;16.60;11.57;;;14.20;99.90;;;;;;5030282;28;20045;-62
2022/06/28 00:44:38;;;;;;;12.00;10.77;;;13.80;99.90;;;;;;5044534;28;20050;-62
2022/06/28 00:47:04;;;;;;;14.68;12.60;;;14.00;99.90;;;;;;5043856;28;20135;-62
2022/06/28 00:49:31;;;;;;;13.82;11.23;;;14.00;99.90;;;;;;5032281;28;20053;-62
2022/06/28 00:51:58;;;;;;;17.08;12.52;;;13.90;99.90;;;;;;5034519;28;20045;-62
2022/06/28 00:54:25;;;;;;;14.07;12.20;;;13.90;99.90;;;;;;5047379;28;20052;-62
2022/06/28 00:56:51;;;;;;;15.38;11.98;;;14.10;99.90;;;;;;5031405;28;20124;-62
2022/06/28 00:59:17;;;;;;;12.98;11.68;;;13.90;99.90;;;;;;5048498;28;20042;-62
2022/06/28 01:01:43;;;;;;;14.07;11.93;;;13.80;99.90;;;;;;5030155;28;20045;-62
2022/06/28 01:04:08;;;;;;;13.68;12.20;;;13.90;99.90;;;;;;5030676;28;20057;-62
2022/06/28 01:06:37;;;;;;;14.07;12.45;;;13.90;99.90;;;;;;5053366;28;20041;-62
2022/06/28 01:09:04;;;;;;;15.23;12.60;;;13.90;99.90;;;;;;5033163;28;20049;-62
2022/06/28 01:11:30;;;;;;;14.32;12.82;;;13.80;99.90;;;;;;5029312;28;20083;-62
2022/06/28 01:13:59;;;;;;;14.75;13.20;;;13.80;99.90;;;;;;5063087;28;20044;-62
2022/06/28 01:16:26;;;;;;;12.45;11.02;;;13.70;99.90;;;;;;5057886;28;20390;-62
2022/06/28 01:18:53;;;;;;;13.55;12.25;;;13.70;99.90;;;;;;5058888;28;20056;-62
2022/06/28 01:21:20;;;;;;;13.93;12.43;;;13.60;99.90;;;;;;5064943;28;20049;-62
2022/06/28 01:23:47;;;;;;;12.93;11.63;;;13.70;99.90;;;;;;5076092;28;20040;-62
2022/06/28 01:26:15;;;;;;;16.67;13.00;;;13.70;99.90;;;;;;5059169;28;20044;-62
2022/06/28 01:28:42;;;;;;;15.52;13.35;;;13.70;99.90;;;;;;5056365;28;20122;-62
2022/06/28 01:31:08;;;;;;;17.27;12.98;;;13.60;99.90;;;;;;5085780;28;20205;-62
2022/06/28 01:33:36;;;;;;;13.90;12.45;;;13.60;99.90;;;;;;5057811;28;20044;-62
2022/06/28 01:36:12;;;;;;;13.85;12.45;;;13.70;99.90;;;;;;5060124;28;20044;-62
2022/06/28 01:38:39;;;;;;;14.18;12.73;;;13.60;99.90;;;;;;5072220;28;20063;-62
2022/06/28 01:41:06;;;;;;;17.08;12.65;;;13.60;99.90;;;;;;5062751;28;20044;-62
2022/06/28 01:43:35;;;;;;;14.45;12.70;;;13.60;99.90;;;;;;5053553;28;20047;-62
2022/06/28 01:46:05;;;;;;;14.30;12.82;;;13.50;99.90;;;;;;5063585;28;20052;-62
2022/06/28 01:48:32;;;;;;;17.42;14.57;;;13.50;99.90;;;;;;5057778;28;20053;-62
2022/06/28 01:50:58;;;;;;;14.77;13.27;;;13.50;99.90;;;;;;5079436;28;20040;-62
2022/06/28 01:53:24;;;;;;;17.80;13.15;;;13.50;99.90;;;;;;5072522;28;20052;-62
2022/06/28 01:55:50;;;;;;;14.43;11.93;;;13.60;99.90;;;;;;5082909;28;20045;-62
2022/06/28 01:58:16;;;;;;;15.55;12.73;;;13.60;99.90;;;;;;5056334;28;20104;-62
2022/06/28 02:00:41;;;;;;;15.70;12.02;;;13.50;99.90;;;;;;5080039;28;20052;-62
2022/06/28 02:03:07;;;;;;;13.75;12.45;;;13.60;99.90;;;;;;5058151;28;20041;-62
2022/06/28 02:05:34;;;;;;;14.10;12.43;;;13.40;99.90;;;;;;5061844;28;20044;-62
2022/06/28 02:08:00;;;;;;;14.93;11.98;;;13.40;99.90;;;;;;5057545;28;20041;-62
2022/06/28 02:10:26;;;;;;;14.63;13.13;;;13.40;99.90;;;;;;5061134;28;20052;-62
2022/06/28 02:12:53;;;;;;;15.73;12.15;;;13.40;99.90;;;;;;5056390;28;20056;-62
2022/06/28 02:15:19;;;;;;;14.13;12.63;;;13.60;99.90;;;;;;5060681;28;20079;-62
2022/06/28 02:17:45;;;;;;;16.25;12.32;;;13.40;99.90;;;;;;5049213;28;20049;-62
2022/06/28 02:20:12;;;;;;;14.07;12.52;;;13.40;99.90;;;;;;5065491;28;20037;-62
2022/06/28 02:22:38;;;;;;;15.38;12.90;;;13.30;99.90;;;;;;5059376;28;20076;-62
2022/06/28 02:25:04;;;;;;;14.65;12.45;;;13.30;99.90;;;;;;5065451;28;20029;-62
2022/06/28 02:27:30;;;;;;;15.63;12.02;;;13.40;99.90;;;;;;5047599;28;20041;-62
2022/06/28 02:29:56;;;;;;;19.30;13.35;;;13.30;99.90;;;;;;5047812;28;20108;-62
2022/06/28 02:32:21;;;;;;;12.63;11.38;;;13.30;99.90;;;;;;5046244;28;20136;-62
2022/06/28 02:40:22;;;;;;;14.55;12.05;;;13.20;99.90;;;;;;5046507;28;20068;-62
2022/06/28 02:42:48;;;;;;;15.02;13.52;;;13.20;99.90;;;;;;5046297;28;20100;-62
2022/06/28 02:45:14;;;;;;;14.68;13.18;;;13.40;99.90;;;;;;5064662;28;20037;-62
2022/06/28 02:47:40;;;;;;;13.95;12.05;;;13.40;99.90;;;;;;5046483;28;20055;-62
2022/06/28 02:50:06;;;;;;;15.23;13.07;;;13.40;99.90;;;;;;5057677;28;20104;-62
2022/06/28 02:52:32;;;;;;;15.20;13.48;;;13.30;99.90;;;;;;5045317;28;20045;-62
2022/06/28 02:54:58;;;;;;;14.82;12.98;;;13.40;99.90;;;;;;5063897;28;20575;-62
2022/06/28 02:57:23;;;;;;;14.65;13.07;;;13.30;99.90;;;;;;5064364;28;20045;-62
2022/06/28 02:59:49;;;;;;;16.17;12.90;;;13.30;99.90;;;;;;5040939;28;20060;-62
2022/06/28 03:02:15;;;;;;;15.18;13.48;;;13.30;99.90;;;;;;5064476;28;20041;-62
2022/06/28 03:04:40;;;;;;;15.93;13.57;;;13.30;99.90;;;;;;5047110;28;20067;-62
2022/06/28 03:07:06;;;;;;;15.15;13.45;;;13.30;99.90;;;;;;5064069;28;20029;-62
2022/06/28 03:09:32;;;;;;;16.70;13.05;;;13.30;99.90;;;;;;5044908;28;20070;-62
2022/06/28 03:11:57;;;;;;;19.83;13.07;;;13.30;99.90;;;;;;5055249;28;20048;-62
2022/06/28 03:14:23;;;;;;;19.02;14.30;;;13.50;99.90;;;;;;5046291;28;20073;-62
2022/06/28 03:16:49;;;;;;;17.55;13.05;;;13.20;99.90;;;;;;5046191;28;20066;-62
2022/06/28 03:19:14;;;;;;;15.63;14.02;;;13.10;99.90;;;;;;5045447;28;20100;-62
2022/06/28 03:21:41;;;;;;;16.08;13.48;;;13.30;99.90;;;;;;5047885;28;20045;-62
2022/06/28 03:24:07;;;;;;;16.60;14.30;;;13.20;99.90;;;;;;5049539;28;20053;-62
2022/06/28 03:26:32;;;;;;;14.80;12.85;;;13.10;99.90;;;;;;5067764;28;20048;-62
2022/06/28 03:28:58;;;;;;;15.55;13.90;;;13.10;99.90;;;;;;5048214;28;20045;-62
2022/06/28 03:31:24;;;;;;;15.25;12.02;;;13.10;99.90;;;;;;5045692;28;20048;-62
2022/06/28 03:33:49;;;;;;;14.63;13.13;;;13.10;99.90;;;;;;5062442;28;20040;-62
2022/06/28 03:36:15;;;;;;;17.10;13.68;;;13.30;99.90;;;;;;5045602;28;20040;-62
2022/06/28 03:38:41;;;;;;;15.57;13.52;;;13.10;99.90;;;;;;5029213;28;20049;-62
2022/06/28 03:41:06;;;;;;;18.13;13.15;;;13.10;99.90;;;;;;5064710;28;20144;-62
2022/06/28 03:43:32;;;;;;;14.63;13.13;;;13.20;99.90;;;;;;5046176;28;20106;-62
2022/06/28 03:45:58;;;;;;;15.48;12.85;;;13.30;99.90;;;;;;5044547;28;20048;-62
2022/06/28 03:48:23;;;;;;;14.98;12.63;;;13.30;99.90;;;;;;5071150;28;20040;-62
2022/06/28 03:50:49;;;;;;;15.45;12.75;;;13.20;99.90;;;;;;5043344;28;20049;-62
2022/06/28 03:53:15;;;;;;;15.38;13.88;;;13.20;99.90;;;;;;5063322;28;20044;-62
2022/06/28 03:55:41;;;;;;;17.42;13.63;;;13.20;99.90;;;;;;5063239;28;20037;-62
2022/06/28 03:58:06;;;;;;;16.77;13.30;;;13.40;99.90;;;;;;5063776;28;20045;-62
2022/06/28 04:00:32;;;;;;;15.50;13.85;;;13.20;99.90;;;;;;5063644;28;20045;-62
2022/06/28 04:03:00;;;;;;;16.60;13.18;;;13.30;99.90;;;;;;5064119;28;20094;-62
2022/06/28 04:05:26;;;;;;;16.25;14.55;;;13.20;99.90;;;;;;5044580;28;20049;-62
2022/06/28 04:07:51;;;;;;;16.73;15.13;;;13.20;99.90;;;;;;5064276;28;20041;-62
2022/06/28 04:10:17;;;;;;;17.02;14.70;;;13.30;99.90;;;;;;5058524;28;20052;-62
2022/06/28 04:12:43;;;;;;;17.33;14.63;;;13.30;99.90;;;;;;5063045;28;20037;-62
2022/06/28 04:15:09;;;;;;;19.58;15.07;;;13.40;99.90;;;;;;5062481;28;20095;-62
2022/06/28 04:17:34;;;;;;;18.95;14.48;;;13.20;99.90;;;;;;5069169;28;20048;-62
2022/06/28 04:20:00;;;;;;;20.02;16.38;;;13.30;99.90;;;;;;5062473;28;20117;-62
2022/06/28 04:22:26;;;;;;;17.27;15.43;;;13.30;99.90;;;;;;5060375;28;20071;-62
2022/06/28 04:24:51;;;;;;;16.77;14.93;;;13.30;99.90;;;;;;5067097;28;20122;-62
2022/06/28 04:27:17;;;;;;;20.08;15.18;;;13.40;99.90;;;;;;5066255;28;20184;-62
2022/06/28 04:29:43;;;;;;;20.65;16.05;;;13.40;99.90;;;;;;5051141;28;20076;-63
2022/06/28 04:32:08;;;;;;;17.88;15.15;;;13.40;99.90;;;;;;5067108;28;20045;-62
2022/06/28 04:34:34;;;;;;;17.13;15.02;;;13.30;99.90;;;;;;5005747;28;20124;-62
2022/06/28 04:37:00;;;;;;;18.35;16.45;;;13.40;99.90;;;;;;5076106;28;20300;-62
2022/06/28 04:39:26;;;;;;;17.70;15.90;;;13.40;99.90;;;;;;5047725;28;20132;-62
2022/06/28 04:41:51;;;;;;;20.27;15.63;;;13.50;99.90;;;;;;5047561;28;20061;-62
2022/06/28 04:44:17;;;;;;;21.48;15.95;;;13.50;99.90;;;;;;5063557;28;20037;-62
2022/06/28 04:46:43;;;;;;;17.95;13.88;;;13.50;99.90;;;;;;5049272;28;20047;-62
2022/06/28 04:49:08;;;;;;;16.92;13.90;;;13.50;99.90;;;;;;5050352;28;20044;-62
2022/06/28 04:51:34;;;;;;;17.48;15.27;;;13.60;99.90;;;;;;5066067;28;20045;-62
2022/06/28 04:54:00;;;;;;;19.33;15.48;;;13.60;99.90;;;;;;5066336;28;20041;-62
2022/06/28 04:56:25;;;;;;;17.05;14.35;;;13.50;99.90;;;;;;5064513;28;20041;-63
2022/06/28 04:58:51;;;;;;;19.60;14.95;;;13.80;99.90;;;;;;5066671;28;20041;-62
2022/06/28 05:01:17;;;;;;;17.52;15.00;;;13.80;99.90;;;;;;5066629;28;20061;-62
2022/06/28 05:03:43;;;;;;;22.13;14.65;;;13.80;99.90;;;;;;5065153;28;20087;-62
2022/06/28 05:06:09;;;;;;;20.65;15.02;;;13.90;99.90;;;;;;5065303;28;20045;-62
2022/06/28 05:08:35;;;;;;;21.02;14.73;;;13.80;99.90;;;;;;5051936;28;20045;-62
2022/06/28 05:11:02;;;;;;;20.50;14.95;;;13.90;99.90;;;;;;5066891;28;20060;-62
2022/06/28 05:13:29;;;;;;;19.65;15.57;;;14.00;99.90;;;;;;5047000;28;20068;-62
2022/06/28 05:15:54;;;;;;;17.35;14.93;;;14.00;99.90;;;;;;5046115;28;20045;-61
2022/06/28 05:18:20;;;;;;;19.92;14.40;;;14.10;99.90;;;;;;5069133;28;20117;-62
2022/06/28 05:20:46;;;;;;;24.58;16.40;;;14.10;99.90;;;;;;5063874;28;20515;-61
2022/06/28 05:23:12;;;;;;;19.42;16.73;;;14.10;99.90;;;;;;5065757;28;20043;-61
2022/06/28 05:25:37;;;;;;;20.02;15.43;;;14.10;99.90;;;;;;5070267;28;20111;-61
2022/06/28 05:28:03;;;;;;;18.80;16.77;;;14.20;99.90;;;;;;5046568;28;22899;-61
2022/06/28 05:30:29;;;;;;;18.98;15.70;;;14.10;99.90;;;;;;5065128;28;20060;-61
2022/06/28 05:32:55;;;;;;;21.58;16.48;;;14.10;99.90;;;;;;5046847;28;20117;-61
2022/06/28 05:35:21;;;;;;;20.17;16.20;;;14.20;99.90;;;;;;5047928;28;20602;-61
2022/06/28 05:37:46;;;;;;;20.52;16.48;;;14.20;99.90;;;;;;5037947;28;20055;-61
2022/06/28 05:40:12;;;;;;;19.75;17.08;;;14.20;99.90;;;;;;5046487;28;20511;-62
2022/06/28 05:42:38;;;;;;;19.35;17.33;;;14.20;99.90;;;;;;5063609;28;20507;-61
2022/06/28 05:45:04;;;;;;;20.85;17.00;;;14.30;99.90;;;;;;5013326;28;20128;-61
2022/06/28 05:47:30;;;;;;;24.15;17.48;;;14.40;99.90;;;;;;5058776;28;20045;-61
2022/06/28 05:49:56;;;;;;;19.45;15.65;;;14.30;99.90;;;;;;5033332;28;20045;-61
2022/06/28 05:52:22;;;;;;;21.75;17.10;;;14.40;99.90;;;;;;5058582;28;20049;-61
2022/06/28 05:54:47;;;;;;;20.15;16.45;;;14.50;99.90;;;;;;5049246;28;20454;-61
2022/06/28 05:57:13;;;;;;;21.90;16.75;;;14.50;99.90;;;;;;5042777;28;20084;-61
2022/06/28 05:59:38;;;;;;;19.83;15.68;;;14.50;99.90;;;;;;5033171;28;20045;-61
2022/06/28 06:02:04;;;;;;;19.95;15.32;;;14.60;99.90;;;;;;5041873;28;20145;-61
2022/06/28 06:04:30;;;;;;;20.52;16.52;;;14.60;99.90;;;;;;5047585;28;20175;-61
2022/06/28 06:06:56;;;;;;;19.02;14.90;;;14.70;99.90;;;;;;5058593;28;20045;-61
2022/06/28 06:09:21;;;;;;;17.45;13.38;;;14.70;99.90;;;;;;5024669;28;20184;-61
2022/06/28 06:11:47;;;;;;;16.20;13.00;;;14.80;99.90;;;;;;5029371;28;20040;-61
2022/06/28 06:14:17;;;;;;;16.65;12.90;;;14.70;99.90;;;;;;5050608;28;20045;-61
2022/06/28 06:16:47;;;;;;;19.42;11.82;;;14.80;99.90;;;;;;5044512;28;20056;-61
2022/06/28 06:19:12;;;;;;;;;;;14.90;99.90;;;;;;5028391;28;20108;-61
2022/06/28 06:21:38;;;;;;;17.02;12.10;;;14.90;99.90;;;;;;5041365;28;19975;-61
2022/06/28 06:24:04;;;;;;;16.30;11.68;;;15.00;99.90;;;;;;5035797;28;20053;-61
2022/06/28 06:26:31;;;;;;;18.40;11.38;;;15.00;99.90;;;;;;5027461;28;20060;-61
2022/06/28 06:28:56;;;;;;;16.38;11.10;;;15.10;99.90;;;;;;5044689;28;20045;-61
2022/06/28 06:31:22;;;;;;;15.38;10.63;;;15.20;99.90;;;;;;5040311;28;20045;-65
2022/06/28 06:33:48;;;;;;;16.58;10.98;;;15.20;99.90;;;;;;5027472;28;20538;-62
2022/06/28 06:36:14;;;;;;;14.35;9.98;;;15.20;99.90;;;;;;5028220;28;20049;-62
2022/06/28 06:38:40;;;;;;;14.43;10.05;;;15.20;99.90;;;;;;5026407;28;20041;-61
2022/06/28 06:41:06;;;;;;;13.23;10.00;;;15.30;99.90;;;;;;5024911;28;20080;-61
2022/06/28 06:43:32;;;;;;;18.13;11.25;;;15.40;99.90;;;;;;5025930;28;20072;-62
2022/06/28 06:45:57;;;;;;;15.45;9.45;;;15.40;99.90;;;;;;5029421;28;20140;-61
2022/06/28 06:48:23;;;;;;;13.13;9.63;;;15.50;99.90;;;;;;5059381;28;20052;-62
2022/06/28 06:50:49;;;;;;;15.00;9.52;;;15.50;99.90;;;;;;5032111;28;20048;-62
2022/06/28 06:53:15;;;;;;;17.33;10.23;;;15.60;99.90;;;;;;5028774;28;20037;-62
2022/06/28 06:55:41;;;;;;;17.60;10.40;;;15.60;99.90;;;;;;5045298;28;20425;-61
2022/06/28 06:58:07;;;;;;;16.35;9.68;;;15.60;99.90;;;;;;5057258;28;20060;-62
2022/06/28 07:00:34;;;;;;;15.35;9.25;;;15.70;99.90;;;;;;5045889;28;20133;-62
2022/06/28 07:03:02;;;;;;;12.57;8.73;;;15.80;99.90;;;;;;5040042;28;20056;-62
2022/06/28 07:05:29;;;;;;;14.35;9.25;;;15.80;99.90;;;;;;5019332;28;20068;-62
2022/06/28 07:07:54;;;;;;;14.07;9.27;;;15.80;99.90;;;;;;5041391;28;20442;-63
2022/06/28 07:10:20;;;;;;;12.60;7.88;;;15.90;99.90;;;;;;5048795;28;20114;-63
2022/06/28 07:12:46;;;;;;;14.93;8.10;;;15.90;99.90;;;;;;5044735;28;20310;-63
2022/06/28 07:15:12;;;;;;;18.63;9.65;;;16.00;99.90;;;;;;5071327;28;20056;-63
2022/06/28 07:17:38;;;;;;;13.63;8.02;;;16.10;99.90;;;;;;5067982;28;20032;-63
2022/06/28 07:20:04;;;;;;;15.23;9.48;;;16.10;99.90;;;;;;5064666;28;20053;-63
2022/06/28 07:22:29;;;;;;;12.15;7.82;;;16.20;99.90;;;;;;5063520;28;20044;-63
2022/06/28 07:24:56;;;;;;;18.95;9.70;;;16.40;99.90;;;;;;5058231;28;20048;-63
2022/06/28 07:27:22;;;;;;;14.68;9.65;;;16.50;99.90;;;;;;5046844;28;20052;-63
2022/06/28 07:29:48;;;;;;;11.50;8.73;;;16.60;99.90;;;;;;5070545;28;20497;-62
2022/06/28 07:32:15;;;;;;;17.40;9.73;;;16.70;99.90;;;;;;5051064;28;20053;-63
2022/06/28 07:34:41;;;;;;;11.18;8.23;;;16.70;99.90;;;;;;5046044;28;20412;-63
2022/06/28 07:37:07;;;;;;;14.20;7.78;;;16.90;99.90;;;;;;5051910;28;20040;-63
2022/06/28 07:39:33;;;;;;;15.23;7.85;;;17.10;99.90;;;;;;5046748;28;20033;-63
2022/06/28 07:41:59;;;;;;;11.65;7.45;;;17.20;99.90;;;;;;5029516;28;20398;-63
2022/06/28 07:44:24;;;;;;;11.10;7.05;;;17.10;99.90;;;;;;5055686;28;20093;-63
2022/06/28 07:46:50;;;;;;;12.38;7.13;;;17.10;99.90;;;;;;5064012;28;20141;-63
2022/06/28 07:49:16;;;;;;;15.18;6.57;;;17.20;99.90;;;;;;5046669;28;20045;-63
2022/06/28 07:54:26;;;;;;;15.02;6.47;;;17.10;99.90;;;;;;5065098;28;20107;-63
2022/06/28 07:56:52;;;;;;;14.00;5.72;;;17.10;99.90;;;;;;5048304;28;20048;-63
2022/06/28 07:59:18;;;;;;;14.18;6.28;;;17.20;99.90;;;;;;5051277;28;20055;-63
2022/06/28 08:01:43;;;;;;;10.15;5.30;;;17.30;99.90;;;;;;5069157;28;20101;-63
2022/06/28 08:04:11;;;;;;;8.68;5.25;;;17.40;99.90;;;;;;5068729;28;20051;-62
2022/06/28 08:06:37;;;;;;;10.93;5.30;;;17.40;99.90;;;;;;5049792;28;20061;-63
2022/06/28 08:09:05;;;;;;;9.45;4.57;;;17.40;99.90;;;;;;5049687;28;20044;-63
2022/06/28 08:11:32;;;;;;;9.68;4.78;;;17.50;99.90;;;;;;5050156;28;20812;-63
2022/06/28 08:14:00;;;;;;;13.93;4.97;;;17.60;99.90;;;;;;5049652;28;20049;-63
2022/06/28 08:16:26;;;;;;;12.10;4.30;;;17.50;99.90;;;;;;5050558;28;20083;-63
2022/06/28 08:18:51;;;;;;;7.40;3.08;;;17.70;99.90;;;;;;5066024;28;20033;-63
2022/06/28 08:21:17;;;;;;;8.88;3.70;;;17.60;99.90;;;;;;5053400;28;20079;-63
2022/06/28 08:23:43;;;;;;;8.45;3.65;;;17.70;99.90;;;;;;5066016;28;20045;-63
2022/06/28 08:26:09;;;;;;;10.35;4.05;;;17.70;99.90;;;;;;5032526;28;20072;-62
2022/06/28 08:28:34;;;;;;;10.70;4.95;;;17.80;99.90;;;;;;5066954;28;20041;-63
2022/06/28 08:31:00;;;;;;;11.40;5.00;;;17.90;99.90;;;;;;5049655;28;20037;-63
2022/06/28 08:33:26;;;;;;;5.72;3.70;;;18.10;99.90;;;;;;5050213;28;20080;-63
2022/06/28 08:35:52;;;;;;;8.32;4.00;;;18.10;99.90;;;;;;5054087;28;20104;-63
2022/06/28 08:38:18;;;;;;;8.07;3.90;;;18.10;99.90;;;;;;5066770;28;20106;-63
2022/06/28 08:40:45;;;;;;;8.25;3.25;;;18.20;99.90;;;;;;5080755;28;20119;-63
2022/06/28 08:43:11;;;;;;;10.15;3.40;;;18.10;99.90;;;;;;5042342;28;20053;-63
2022/06/28 08:45:37;;;;;;;6.25;2.17;;;18.20;99.90;;;;;;5048101;28;20124;-63
2022/06/28 08:48:25;;;;;;;8.80;2.30;;;18.30;99.90;;;;;;5068056;28;20041;-63
2022/06/28 08:50:52;;;;;;;4.70;1.90;;;18.30;99.90;;;;;;5050325;28;20068;-63
2022/06/28 08:53:22;;;;;;;13.02;3.20;;;18.40;99.90;;;;;;5067586;28;20041;-63
2022/06/28 08:55:49;;;;;;;9.18;3.20;;;18.30;99.90;;;;;;5072215;28;20523;-63
2022/06/28 08:58:16;;;;;;;9.90;3.20;;;18.30;99.90;;;;;;5048693;28;20051;-63
2022/06/28 09:00:42;;;;;;;7.45;2.83;;;18.30;99.90;;;;;;5066544;28;20143;-63
2022/06/28 09:03:08;;;;;;;7.20;2.47;;;18.30;99.90;;;;;;5048685;28;20045;-63
2022/06/28 09:05:33;;;;;;;6.50;2.50;;;18.30;99.90;;;;;;5066844;28;20075;-63
2022/06/28 09:07:59;;;;;;;7.80;1.77;;;18.40;99.90;;;;;;5061923;28;20041;-63
2022/06/28 09:10:26;;;;;;;8.40;2.28;;;18.50;99.90;;;;;;5065129;28;20040;-63
2022/06/28 09:13:05;;;;;;;5.90;2.15;;;18.60;99.90;;;;;;5047110;28;20147;-63
2022/06/28 09:15:45;;;;;;;6.15;2.72;;;18.60;99.90;;;;;;5066213;28;20057;-63
2022/06/28 09:18:11;;;;;;;6.68;2.30;;;18.70;99.90;;;;;;5067818;28;20048;-62
2022/06/28 09:20:38;;;;;;;5.28;2.47;;;18.70;99.90;;;;;;5066298;28;20041;-63
2022/06/28 09:23:19;;;;;;;8.45;3.17;;;18.70;99.90;;;;;;5066386;28;20068;-63
2022/06/28 09:25:47;;;;;;;5.90;2.50;;;18.70;99.90;;;;;;5047837;28;20481;-63
2022/06/28 09:28:27;;;;;;;7.20;2.60;;;18.80;99.90;;;;;;5066138;28;20057;-63
2022/06/28 09:31:13;;;;;;;6.03;2.55;;;18.80;99.90;;;;;;5048067;28;20124;-63
2022/06/28 09:33:40;;;;;;;10.13;3.05;;;18.90;99.90;;;;;;5046906;28;20080;-63
2022/06/28 09:36:09;;;;;;;4.53;2.03;;;19.00;99.90;;;;;;5066992;28;20068;-63
2022/06/28 09:38:34;;;;;;;6.93;2.83;;;19.10;99.90;;;;;;5047854;28;20053;-63
2022/06/28 09:41:00;;;;;;;7.90;2.53;;;19.20;99.90;;;;;;5064578;28;20412;-63
2022/06/28 09:43:35;;;;;;;4.47;2.20;;;19.20;99.90;;;;;;5048326;28;20128;-63
2022/06/28 09:46:04;;;;;;;3.72;1.90;;;19.30;99.90;;;;;;5063603;28;20243;-63
2022/06/28 09:48:36;;;;;;;6.30;1.90;;;19.40;99.90;;;;;;5048403;28;20087;-63
2022/06/28 09:51:03;;;;;;;5.65;2.88;;;19.30;99.90;;;;;;5072708;28;20100;-63
2022/06/28 09:53:31;;;;;;;8.07;2.55;;;19.40;99.90;;;;;;5046977;28;20045;-63
2022/06/28 09:56:02;;;;;;;6.38;2.10;;;19.40;99.90;;;;;;5048385;28;20101;-63
2022/06/28 09:58:28;;;;;;;4.53;2.00;;;19.50;99.90;;;;;;5060398;28;20041;-63
2022/06/28 10:00:54;;;;;;;6.80;2.00;;;19.50;99.90;;;;;;5030700;28;20060;-63
2022/06/28 10:03:20;;;;;;;4.72;1.95;;;19.60;99.90;;;;;;5066628;28;20045;-63
2022/06/28 10:05:46;;;;;;;6.15;2.45;;;19.70;99.90;;;;;;5066827;28;20465;-63
2022/06/28 10:08:12;;;;;;;5.50;2.00;;;19.70;99.90;;;;;;5044547;28;20041;-63
2022/06/28 10:10:40;;;;;;;7.22;2.03;;;19.60;99.90;;;;;;5046000;28;20098;-63
2022/06/28 10:16:45;;;;;;;5.88;1.95;;;19.60;99.90;;;;;;5047064;28;20056;-63
2022/06/28 10:19:13;;;;;;;6.35;2.13;;;19.70;99.90;;;;;;5026947;28;20052;-63
2022/06/28 10:22:11;;;;;;;9.75;2.28;;;19.70;99.90;;;;;;5063562;28;20056;-63
2022/06/28 10:24:55;;;;;;;7.28;2.13;;;19.80;99.90;;;;;;5045003;28;20057;-63
2022/06/28 10:27:22;;;;;;;7.90;2.30;;;19.80;99.90;;;;;;5058620;28;20056;-63
2022/06/28 10:30:00;;;;;;;7.65;2.40;;;19.80;99.90;;;;;;5063830;28;20044;-63
2022/06/28 10:32:46;;;;;;;6.45;1.92;;;19.80;99.90;;;;;;5067555;28;20057;-63
2022/06/28 10:35:31;;;;;;;5.60;2.25;;;19.90;99.90;;;;;;5048942;28;20420;-63
2022/06/28 10:38:09;;;;;;;8.13;2.22;;;19.90;99.90;;;;;;5045406;28;20119;-63
2022/06/28 10:40:38;;;;;;;5.32;2.00;;;20.00;99.90;;;;;;5051713;28;20048;-63
2022/06/28 10:43:04;;;;;;;6.93;2.03;;;20.00;99.90;;;;;;5046986;28;20084;-63
2022/06/28 10:46:04;;;;;;;5.43;1.75;;;19.80;99.90;;;;;;5061854;28;20049;-63
2022/06/28 10:48:31;;;;;;;4.82;1.48;;;19.80;99.90;;;;;;5070080;28;20049;-63
2022/06/28 10:51:01;;;;;;;4.22;1.80;;;19.90;99.90;;;;;;5044908;28;20041;-63
2022/06/28 10:53:50;;;;;;;5.85;1.88;;;20.00;99.90;;;;;;5041244;28;20059;-63
2022/06/28 10:56:17;;;;;;;4.85;1.58;;;20.20;99.90;;;;;;5060623;28;20508;-63
2022/06/28 10:58:56;;;;;;;4.70;2.10;;;20.00;99.90;;;;;;5045838;28;20053;-63
2022/06/28 11:01:50;;;;;;;3.73;1.60;;;20.20;99.90;;;;;;5046699;28;20119;-63
2022/06/28 11:04:19;;;;;;;3.72;1.83;;;20.40;99.90;;;;;;5060819;28;20383;-63
2022/06/28 11:06:47;;;;;;;8.55;2.65;;;20.50;99.90;;;;;;5047535;28;20044;-63
2022/06/28 11:09:32;;;;;;;5.90;2.30;;;20.60;99.90;;;;;;5061831;28;20508;-63
2022/06/28 11:12:13;;;;;;;8.38;2.08;;;20.50;99.90;;;;;;5047396;28;20037;-63
2022/06/28 11:14:47;;;;;;;8.20;2.17;;;20.50;99.90;;;;;;5052025;28;20109;-63
2022/06/28 11:17:33;;;;;;;7.57;2.25;;;20.60;99.90;;;;;;5051292;28;20049;-63
2022/06/28 11:20:02;;;;;;;4.70;1.80;;;20.60;99.90;;;;;;5063761;28;20508;-63
2022/06/28 11:22:43;;;;;;;4.95;2.00;;;20.60;99.90;;;;;;5046218;28;20041;-63
2022/06/28 11:25:12;;;;;;;6.85;2.00;;;20.70;99.90;;;;;;5053259;28;20061;-63
2022/06/28 11:27:55;;;;;;;5.20;1.80;;;20.80;99.90;;;;;;5063137;28;20097;-63
2022/06/28 11:30:27;;;;;;;4.05;1.88;;;20.90;99.90;;;;;;5063722;28;20706;-63
2022/06/28 11:32:58;;;;;;;3.47;1.83;;;21.00;99.90;;;;;;5047016;28;20045;-63
2022/06/28 11:35:30;;;;;;;5.82;2.17;;;21.00;99.90;;;;;;5070480;28;20099;-63
2022/06/28 11:38:05;;;;;;;3.90;1.70;;;21.10;99.90;;;;;;5057856;28;20057;-63
2022/06/28 11:40:44;;;;;;;2.90;1.48;;;21.20;99.90;;;;;;5046463;28;20049;-63
2022/06/28 11:43:15;;;;;;;6.80;1.70;;;21.20;99.90;;;;;;5045816;28;20064;-63
2022/06/28 11:45:51;;;;;;;3.90;1.52;;;21.30;99.90;;;;;;5064104;28;20297;-63
2022/06/28 11:48:18;;;;;;;7.03;2.53;;;21.20;99.90;;;;;;5047208;28;20067;-63
2022/06/28 11:50:46;;;;;;;3.47;1.90;;;21.40;99.90;;;;;;5047073;28;20076;-63
2022/06/28 11:53:14;;;;;;;3.88;1.65;;;21.60;99.90;;;;;;5063446;28;20075;-63
2022/06/28 11:55:53;;;;;;;3.80;1.60;;;21.80;99.90;;;;;;5045960;28;20130;-63
2022/06/28 11:58:20;;;;;;;5.85;2.00;;;21.80;99.90;;;;;;5064958;28;20231;-63
2022/06/28 12:01:12;;;;;;;6.20;1.88;;;21.90;99.90;;;;;;5047501;28;20390;-63
2022/06/28 12:03:44;;;;;;;6.38;1.83;;;22.00;99.90;;;;;;5046986;28;20065;-63
2022/06/28 12:06:23;;;;;;;3.88;1.73;;;22.00;99.90;;;;;;5064587;28;20140;-63
2022/06/28 12:08:51;;;;;;;4.72;1.85;;;21.90;99.90;;;;;;5045922;28;20075;-63
2022/06/28 12:11:37;;;;;;;5.68;2.03;;;21.60;99.90;;;;;;5045716;28;20048;-63
2022/06/28 12:14:02;;;;;;;5.22;1.60;;;21.70;99.90;;;;;;5046169;28;20057;-63
2022/06/28 12:16:35;;;;;;;9.30;1.90;;;21.50;99.90;;;;;;5063472;28;20094;-63
2022/06/28 12:19:02;;;;;;;6.57;2.17;;;21.50;99.90;;;;;;5063858;28;20507;-63
2022/06/28 12:21:29;;;;;;;6.63;2.30;;;21.70;99.90;;;;;;5045589;28;20072;-63
2022/06/28 12:23:56;;;;;;;6.13;1.95;;;21.80;99.90;;;;;;5046053;28;20052;-63
2022/06/28 12:26:43;;;;;;;6.07;2.08;;;22.00;99.90;;;;;;5064004;28;20366;-63
2022/06/28 12:29:11;;;;;;;5.50;2.00;;;21.90;99.90;;;;;;5063172;28;20476;-63
2022/06/28 12:31:40;;;;;;;9.07;2.50;;;21.90;99.90;;;;;;5050782;28;20037;-63
2022/06/28 12:34:07;;;;;;;4.45;2.22;;;22.00;99.90;;;;;;5045281;28;20100;-63
2022/06/28 12:36:34;;;;;;;5.05;1.70;;;22.00;99.90;;;;;;5032751;28;20056;-63
2022/06/28 12:39:00;;;;;;;5.70;2.40;;;22.10;99.90;;;;;;5046513;28;20125;-63
2022/06/28 12:41:25;;;;;;;3.42;1.83;;;21.80;99.90;;;;;;5028528;28;20096;-63
2022/06/28 12:43:51;;;;;;;3.72;1.83;;;22.00;99.90;;;;;;5046783;28;20067;-63
2022/06/28 12:46:16;;;;;;;6.10;1.98;;;22.10;99.90;;;;;;5049161;28;20068;-63
2022/06/28 12:48:42;;;;;;;4.05;1.92;;;22.10;99.90;;;;;;5066771;28;20102;-63
2022/06/28 12:51:08;;;;;;;5.13;1.80;;;21.90;99.90;;;;;;5067331;28;20049;-63
2022/06/28 12:53:34;;;;;;;5.05;2.15;;;22.00;99.90;;;;;;5049093;28;20076;-63